Time;durP1;ratioP1;P1;durP2;ratioP2;P2;SDS_P1;SDS_P2;PMS_P1;PMS_P2;Temp;Humidity;BMP_temperature;BMP_pressure;BME280_temperature;BME280_humidity;BME280_pressure;Samples;Min_cycle;Max_cycle;Signal;HPM_P1;HPM_P2
2021/03/20 00:00:32;;;;;;;17.05;8.05;;;3.30;87.20;;;;;;4993450;28;20401;-76
2021/03/20 00:02:58;;;;;;;;;;;3.40;87.30;;;;;;5004281;28;20469;-73
2021/03/20 00:05:24;;;;;;;15.70;7.63;;;3.30;87.40;;;;;;5000129;28;19909;-74
2021/03/20 00:07:55;;;;;;;20.75;7.75;;;3.30;87.30;;;;;;5005388;28;20034;-73
2021/03/20 00:10:23;;;;;;;18.08;8.15;;;3.20;87.40;;;;;;4998270;28;20042;-73
2021/03/20 00:12:51;;;;;;;16.73;7.22;;;3.30;87.60;;;;;;5006095;28;20061;-73
2021/03/20 00:15:19;;;;;;;18.50;7.35;;;3.20;87.60;;;;;;5011273;28;20033;-72
2021/03/20 00:17:45;;;;;;;14.77;8.70;;;3.20;87.80;;;;;;5001127;28;20045;-73
2021/03/20 00:20:14;;;;;;;21.25;8.93;;;3.20;87.90;;;;;;5008934;28;20602;-75
2021/03/20 00:22:40;;;;;;;23.67;9.20;;;3.30;88.00;;;;;;5008207;28;20346;-73
2021/03/20 00:25:07;;;;;;;19.30;8.60;;;3.20;88.00;;;;;;4999169;28;20233;-74
2021/03/20 00:27:33;;;;;;;15.60;8.35;;;3.30;88.20;;;;;;4999929;28;20088;-73
2021/03/20 00:29:59;;;;;;;19.20;8.55;;;3.20;88.20;;;;;;5005196;28;20041;-74
2021/03/20 00:32:25;;;;;;;19.73;8.65;;;3.20;88.20;;;;;;5000862;28;20121;-74
2021/03/20 00:34:51;;;;;;;21.67;9.27;;;3.10;88.40;;;;;;5007253;28;20034;-73
2021/03/20 00:37:16;;;;;;;18.40;9.27;;;3.20;88.50;;;;;;5006547;28;20041;-73
2021/03/20 00:39:43;;;;;;;22.50;10.20;;;3.20;88.50;;;;;;5005341;28;20117;-72
2021/03/20 00:42:09;;;;;;;20.08;10.65;;;3.10;88.50;;;;;;5002768;28;20026;-74
2021/03/20 00:44:35;;;;;;;25.70;11.18;;;3.10;88.50;;;;;;5000568;28;20029;-74
2021/03/20 00:47:01;;;;;;;18.60;9.13;;;3.10;88.70;;;;;;5003245;28;20034;-77
2021/03/20 00:49:27;;;;;;;18.88;9.48;;;3.10;88.80;;;;;;5003923;28;20035;-73
2021/03/20 00:51:53;;;;;;;19.63;10.02;;;3.10;88.70;;;;;;5003778;28;20238;-74
2021/03/20 00:54:18;;;;;;;18.33;10.27;;;3.10;88.70;;;;;;4995994;28;20119;-73
2021/03/20 00:56:44;;;;;;;22.85;10.80;;;3.20;88.70;;;;;;5005760;28;20040;-72
2021/03/20 00:59:10;;;;;;;20.67;10.82;;;3.20;88.70;;;;;;5000196;28;20033;-73
2021/03/20 01:01:35;;;;;;;20.15;10.82;;;3.20;88.70;;;;;;5003236;28;20038;-76
2021/03/20 01:04:01;;;;;;;19.40;10.60;;;3.20;88.80;;;;;;5008515;28;20037;-73
2021/03/20 01:06:28;;;;;;;18.73;9.77;;;3.20;88.70;;;;;;5000670;28;20057;-73
2021/03/20 01:08:55;;;;;;;18.65;9.52;;;3.20;88.70;;;;;;5005706;28;20034;-73
2021/03/20 01:11:21;;;;;;;18.08;10.63;;;3.20;88.70;;;;;;5008031;28;20513;-73
2021/03/20 01:13:47;;;;;;;21.83;12.02;;;3.20;88.70;;;;;;5008576;28;20369;-73
2021/03/20 01:16:13;;;;;;;25.58;11.70;;;3.20;88.90;;;;;;4993655;28;20038;-72
2021/03/20 01:18:40;;;;;;;25.05;11.38;;;3.20;89.00;;;;;;5003426;28;20515;-75
2021/03/20 01:21:06;;;;;;;25.52;12.15;;;3.20;89.00;;;;;;5009410;28;20034;-73
2021/03/20 01:23:32;;;;;;;21.33;11.40;;;3.20;89.10;;;;;;5006937;28;20160;-73
2021/03/20 01:25:58;;;;;;;23.30;10.35;;;3.20;89.20;;;;;;5005538;28;20061;-73
2021/03/20 01:28:29;;;;;;;18.67;10.13;;;3.20;89.10;;;;;;5001047;28;20159;-73
2021/03/20 01:30:55;;;;;;;21.15;10.75;;;3.30;89.10;;;;;;5003245;28;20019;-75
2021/03/20 01:33:21;;;;;;;20.45;10.07;;;3.20;89.00;;;;;;5007991;28;20124;-73
2021/03/20 01:35:47;;;;;;;17.05;10.27;;;3.20;88.90;;;;;;5007433;28;20156;-73
2021/03/20 01:38:12;;;;;;;21.80;10.02;;;3.20;88.80;;;;;;5007855;28;20026;-74
2021/03/20 01:40:45;;;;;;;19.27;9.93;;;3.20;89.00;;;;;;4999891;28;20033;-73
2021/03/20 01:43:16;;;;;;;14.30;9.05;;;3.20;89.00;;;;;;5015047;28;20076;-73
2021/03/20 01:45:42;;;;;;;18.45;9.27;;;3.20;89.10;;;;;;5008444;28;20030;-73
2021/03/20 01:48:21;;;;;;;18.05;9.05;;;3.20;89.10;;;;;;5005328;28;20048;-78
2021/03/20 01:50:49;;;;;;;15.13;9.23;;;3.10;89.10;;;;;;5015733;28;20030;-74
2021/03/20 01:53:37;;;;;;;20.65;9.10;;;3.10;89.10;;;;;;5007458;28;20034;-74
2021/03/20 01:56:11;;;;;;;21.67;9.85;;;3.10;89.10;;;;;;5009341;28;20110;-72
2021/03/20 01:58:39;;;;;;;16.02;8.82;;;3.20;89.10;;;;;;5009130;28;20504;-72
2021/03/20 02:01:09;;;;;;;16.33;8.60;;;3.20;89.10;;;;;;5004173;28;20487;-73
2021/03/20 02:03:36;;;;;;;18.15;9.18;;;3.30;89.00;;;;;;5006238;28;20084;-72
2021/03/20 02:06:02;;;;;;;18.40;8.48;;;3.30;88.80;;;;;;5005203;28;20030;-72
2021/03/20 02:08:29;;;;;;;13.75;9.07;;;3.40;88.60;;;;;;5001507;28;20065;-74
2021/03/20 02:11:04;;;;;;;17.55;8.75;;;3.40;88.40;;;;;;5007658;28;20443;-80
2021/03/20 02:13:38;;;;;;;19.75;8.90;;;3.40;88.30;;;;;;5005447;28;20026;-75
2021/03/20 02:16:15;;;;;;;21.10;8.40;;;3.50;88.30;;;;;;5001515;28;20045;-74
2021/03/20 02:18:47;;;;;;;18.85;9.02;;;3.50;88.10;;;;;;5004437;28;20038;-72
2021/03/20 02:21:44;;;;;;;17.40;8.05;;;3.60;87.90;;;;;;4999355;28;20077;-72
2021/03/20 02:24:47;;;;;;;41.40;8.98;;;3.60;87.70;;;;;;4996432;28;20114;-72
2021/03/20 02:28:01;;;;;;;24.25;8.57;;;3.60;87.70;;;;;;4999062;28;20041;-72
2021/03/20 02:30:54;;;;;;;16.80;7.95;;;3.60;87.40;;;;;;5006100;28;21999;-75
2021/03/20 02:33:47;;;;;;;22.33;8.25;;;3.60;87.30;;;;;;5006870;28;20149;-73
2021/03/20 02:36:43;;;;;;;20.40;9.07;;;3.60;87.20;;;;;;5000677;28;20030;-75
2021/03/20 02:39:29;;;;;;;19.80;9.50;;;3.60;87.20;;;;;;5004008;28;20041;-72
2021/03/20 02:41:58;;;;;;;18.00;9.77;;;3.50;87.10;;;;;;5009127;28;20060;-73
2021/03/20 02:44:36;;;;;;;21.40;11.00;;;3.50;87.20;;;;;;5001185;28;20509;-73
2021/03/20 02:47:05;;;;;;;30.08;10.32;;;3.40;87.30;;;;;;5005619;28;20469;-73
2021/03/20 02:49:58;;;;;;;24.63;10.88;;;3.30;87.10;;;;;;5004522;28;20532;-73
2021/03/20 02:52:45;;;;;;;22.25;10.60;;;3.30;87.10;;;;;;4988493;28;20452;-72
2021/03/20 02:55:17;;;;;;;18.55;10.65;;;3.20;87.30;;;;;;4998435;28;20489;-74
2021/03/20 02:57:56;;;;;;;18.23;9.90;;;3.20;87.20;;;;;;5002300;28;20038;-73
2021/03/20 03:00:44;;;;;;;19.85;10.98;;;3.10;87.20;;;;;;4999990;28;20045;-74
2021/03/20 03:03:13;;;;;;;20.15;11.20;;;3.10;87.20;;;;;;5001182;28;20037;-77
2021/03/20 03:05:45;;;;;;;21.63;11.55;;;3.10;87.30;;;;;;5001932;28;20031;-72
2021/03/20 03:08:22;;;;;;;19.77;11.80;;;3.10;87.30;;;;;;4995026;28;20041;-72
2021/03/20 03:10:54;;;;;;;23.65;12.60;;;3.00;87.30;;;;;;5007944;28;20025;-73
2021/03/20 03:13:24;;;;;;;22.83;13.55;;;3.00;87.40;;;;;;5005679;28;20458;-74
2021/03/20 03:15:56;;;;;;;21.88;12.50;;;2.90;87.40;;;;;;5010845;28;20715;-73
2021/03/20 03:18:31;;;;;;;23.77;13.40;;;3.00;87.50;;;;;;4998715;28;20036;-78
2021/03/20 03:21:00;;;;;;;24.05;14.32;;;3.00;87.40;;;;;;4999683;28;20076;-73
2021/03/20 03:23:31;;;;;;;21.48;13.90;;;3.00;87.40;;;;;;5007032;28;20041;-73
2021/03/20 03:26:04;;;;;;;25.65;14.68;;;3.00;87.30;;;;;;5003671;28;20093;-72
2021/03/20 03:28:31;;;;;;;24.83;14.15;;;3.00;87.20;;;;;;4998933;28;20046;-76
2021/03/20 03:30:59;;;;;;;24.55;14.65;;;3.10;87.20;;;;;;5004886;28;20034;-76
2021/03/20 03:33:33;;;;;;;20.80;14.85;;;3.10;86.70;;;;;;4997804;28;20030;-73
2021/03/20 03:36:07;;;;;;;22.25;14.70;;;3.10;86.70;;;;;;5004093;28;20372;-73
2021/03/20 03:39:00;;;;;;;21.20;14.20;;;3.10;86.70;;;;;;4999734;28;20065;-73
2021/03/20 03:41:32;;;;;;;22.10;14.93;;;3.10;86.70;;;;;;5004980;28;20037;-73
2021/03/20 03:43:59;;;;;;;28.52;16.17;;;3.10;86.60;;;;;;5003244;28;20026;-75
2021/03/20 03:46:29;;;;;;;23.55;15.57;;;3.10;86.60;;;;;;5000038;28;20048;-75
2021/03/20 03:48:58;;;;;;;22.25;15.85;;;3.10;86.60;;;;;;5007178;28;20542;-72
2021/03/20 03:51:25;;;;;;;25.95;17.27;;;3.10;86.60;;;;;;5005459;28;20041;-73
2021/03/20 03:53:53;;;;;;;27.70;17.17;;;3.10;86.70;;;;;;5001027;28;20030;-73
2021/03/20 03:56:57;;;;;;;25.35;17.85;;;3.10;86.70;;;;;;5003223;28;20056;-73
2021/03/20 03:59:34;;;;;;;25.80;19.20;;;3.10;86.70;;;;;;5004914;28;20533;-73
2021/03/20 04:02:25;;;;;;;24.08;18.75;;;3.10;86.60;;;;;;4999573;28;20022;-73
2021/03/20 04:05:14;;;;;;;27.70;20.55;;;3.10;86.70;;;;;;5004210;28;20033;-72
2021/03/20 04:08:02;;;;;;;30.73;20.70;;;3.10;86.50;;;;;;5003371;28;20588;-75
2021/03/20 04:10:40;;;;;;;30.90;22.05;;;3.10;86.40;;;;;;5005309;28;20036;-72
2021/03/20 04:13:33;;;;;;;33.15;23.58;;;3.10;86.40;;;;;;5002016;28;20034;-74
2021/03/20 04:16:17;;;;;;;33.55;23.30;;;3.10;86.40;;;;;;5008875;28;20037;-74
2021/03/20 04:19:13;;;;;;;34.85;23.55;;;3.00;86.30;;;;;;5004096;28;20022;-75
2021/03/20 04:21:55;;;;;;;31.45;23.98;;;2.90;86.30;;;;;;5004463;28;20038;-78
2021/03/20 04:24:26;;;;;;;28.85;23.55;;;2.90;86.50;;;;;;4997273;28;20220;-75
2021/03/20 04:27:00;;;;;;;34.85;25.05;;;2.90;86.40;;;;;;5001606;28;20374;-74
2021/03/20 04:29:41;;;;;;;33.13;24.02;;;2.80;86.50;;;;;;5006151;28;20688;-74
2021/03/20 04:32:16;;;;;;;36.38;24.17;;;2.70;86.50;;;;;;5001285;28;20022;-75
2021/03/20 04:34:46;;;;;;;34.42;24.15;;;2.60;86.60;;;;;;5008909;28;20033;-74
2021/03/20 04:37:15;;;;;;;34.47;23.88;;;2.60;86.70;;;;;;5013946;28;20044;-74
2021/03/20 04:39:47;;;;;;;36.15;24.80;;;2.60;86.90;;;;;;5008184;28;20034;-79
2021/03/20 04:42:20;;;;;;;34.38;24.65;;;2.50;86.80;;;;;;5003655;28;20092;-74
2021/03/20 04:44:47;;;;;;;34.80;25.00;;;2.40;87.00;;;;;;5004957;28;20030;-73
2021/03/20 04:47:20;;;;;;;39.25;26.65;;;2.50;87.10;;;;;;5010753;28;20038;-75
2021/03/20 04:49:57;;;;;;;38.20;27.30;;;2.40;87.20;;;;;;5007965;28;20073;-74
2021/03/20 04:52:34;;;;;;;35.80;25.50;;;2.30;87.20;;;;;;5008889;28;20034;-73
2021/03/20 04:55:04;;;;;;;37.80;27.30;;;2.30;87.20;;;;;;5006721;28;20030;-75
2021/03/20 04:57:41;;;;;;;36.28;26.25;;;2.20;87.40;;;;;;5001586;28;20465;-74
2021/03/20 05:00:26;;;;;;;36.70;26.60;;;2.20;87.40;;;;;;5014807;28;20025;-74
2021/03/20 05:03:04;;;;;;;36.72;27.92;;;2.20;87.40;;;;;;5008351;28;20034;-75
2021/03/20 05:05:40;;;;;;;35.72;26.90;;;2.10;87.30;;;;;;5007228;28;20049;-73
2021/03/20 05:08:09;;;;;;;38.15;28.88;;;2.10;87.40;;;;;;5003774;28;20119;-73
2021/03/20 05:10:50;;;;;;;41.78;28.35;;;2.10;87.40;;;;;;5006704;28;20037;-73
2021/03/20 05:13:30;;;;;;;40.10;27.77;;;2.00;87.60;;;;;;5006827;28;20361;-73
2021/03/20 05:16:16;;;;;;;39.03;28.30;;;1.90;87.70;;;;;;5010098;28;20021;-76
2021/03/20 05:18:47;;;;;;;37.38;27.27;;;2.00;87.80;;;;;;5007258;28;20157;-72
2021/03/20 05:21:16;;;;;;;36.22;27.95;;;1.90;87.80;;;;;;5004661;28;20473;-74
2021/03/20 05:23:42;;;;;;;41.13;29.63;;;1.90;87.90;;;;;;5004353;28;20037;-72
2021/03/20 05:26:08;;;;;;;41.30;28.90;;;1.80;87.90;;;;;;5003180;28;20030;-77
2021/03/20 05:28:33;;;;;;;37.72;28.85;;;1.90;88.00;;;;;;5003577;28;20476;-74
2021/03/20 05:31:01;;;;;;;42.67;28.15;;;1.80;88.00;;;;;;5005553;28;20022;-74
2021/03/20 05:33:27;;;;;;;37.65;29.15;;;1.80;88.00;;;;;;4992685;28;20157;-75
2021/03/20 05:35:53;;;;;;;39.10;29.40;;;1.80;88.00;;;;;;5010000;28;20026;-74
2021/03/20 05:38:19;;;;;;;45.03;31.00;;;1.80;88.10;;;;;;5005765;28;20030;-74
2021/03/20 05:40:45;;;;;;;41.47;29.90;;;1.80;88.10;;;;;;5006879;28;20579;-75
2021/03/20 05:43:27;;;;;;;42.10;29.73;;;1.80;88.20;;;;;;5004598;28;20033;-72
2021/03/20 05:46:02;;;;;;;41.30;29.73;;;1.80;88.20;;;;;;5009202;28;20038;-72
2021/03/20 05:48:34;;;;;;;40.42;29.80;;;1.80;88.20;;;;;;5005055;28;20033;-74
2021/03/20 05:51:23;;;;;;;45.08;29.60;;;1.80;88.20;;;;;;5017384;28;20041;-72
2021/03/20 05:54:07;;;;;;;42.08;30.10;;;1.80;88.30;;;;;;5020911;28;20034;-73
2021/03/20 05:57:05;;;;;;;44.55;31.55;;;1.70;88.40;;;;;;5016774;28;20053;-75
2021/03/20 05:59:53;;;;;;;40.75;29.20;;;1.80;88.40;;;;;;5002978;28;20026;-77
2021/03/20 06:03:03;;;;;;;43.50;30.27;;;1.80;88.40;;;;;;5005452;28;20416;-78
2021/03/20 06:05:31;;;;;;;42.88;31.00;;;1.80;88.40;;;;;;4943607;28;20042;-73
2021/03/20 06:08:04;;;;;;;40.65;29.10;;;1.80;88.40;;;;;;4930549;28;20143;-75
2021/03/20 06:11:37;;;;;;;43.08;30.63;;;1.80;88.40;;;;;;4978409;28;20385;-73
2021/03/20 06:14:34;;;;;;;41.90;30.45;;;1.80;88.40;;;;;;4950856;28;20042;-73
2021/03/20 06:17:37;;;;;;;44.03;30.48;;;1.80;88.50;;;;;;4961717;28;20068;-73
2021/03/20 06:20:22;;;;;;;44.15;29.25;;;1.80;88.40;;;;;;5002029;28;20061;-78
2021/03/20 06:23:08;;;;;;;41.40;28.90;;;1.90;88.40;;;;;;5002841;28;20120;-74
2021/03/20 06:25:47;;;;;;;43.45;30.52;;;1.90;88.40;;;;;;5010525;28;20355;-74
2021/03/20 06:28:16;;;;;;;40.30;31.33;;;1.90;88.30;;;;;;5004048;28;20049;-72
2021/03/20 06:30:49;;;;;;;46.97;30.38;;;1.90;88.30;;;;;;5010118;28;20033;-73
2021/03/20 06:33:28;;;;;;;42.33;29.60;;;2.00;88.30;;;;;;5002973;28;20026;-74
2021/03/20 06:36:19;;;;;;;43.00;29.60;;;2.00;88.20;;;;;;5008575;28;20477;-73
2021/03/20 06:38:58;;;;;;;38.78;30.35;;;2.10;88.10;;;;;;5003579;28;20042;-73
2021/03/20 06:41:38;;;;;;;42.55;30.48;;;2.30;88.30;;;;;;5006440;28;20044;-72
2021/03/20 06:44:28;;;;;;;36.92;27.60;;;2.80;87.40;;;;;;5009553;28;20473;-74
2021/03/20 06:46:53;;;;;;;35.00;27.00;;;3.40;85.40;;;;;;5005460;28;20050;-75
2021/03/20 06:49:54;;;;;;;36.72;26.42;;;3.80;83.50;;;;;;5005974;28;20107;-73
2021/03/20 06:52:22;;;;;;;34.95;25.38;;;4.30;81.80;;;;;;4985659;28;20034;-72
2021/03/20 06:54:58;;;;;;;36.70;26.10;;;4.50;80.30;;;;;;5007728;28;20087;-73
2021/03/20 06:57:24;;;;;;;35.33;25.45;;;4.60;79.90;;;;;;5004616;28;20030;-76
2021/03/20 06:59:53;;;;;;;37.05;26.73;;;4.60;79.40;;;;;;5006372;28;20468;-74
2021/03/20 07:02:55;;;;;;;38.20;27.73;;;4.40;79.70;;;;;;5010318;28;20054;-73
2021/03/20 07:05:27;;;;;;;38.88;28.42;;;4.00;80.80;;;;;;5010963;28;20033;-75
2021/03/20 07:07:56;;;;;;;43.83;30.83;;;3.60;82.60;;;;;;4997547;28;20054;-73
2021/03/20 07:10:29;;;;;;;40.38;30.05;;;3.40;83.50;;;;;;5000879;28;20516;-74
2021/03/20 07:13:15;;;;;;;43.70;29.95;;;3.40;84.10;;;;;;5007488;28;20485;-77
2021/03/20 07:15:41;;;;;;;40.75;31.35;;;3.30;84.60;;;;;;5010416;28;20372;-72
2021/03/20 07:18:30;;;;;;;46.42;31.77;;;3.30;85.10;;;;;;5007621;28;20109;-74
2021/03/20 07:20:57;;;;;;;44.88;32.75;;;3.20;85.40;;;;;;5000188;28;20038;-76
2021/03/20 07:23:23;;;;;;;49.15;32.83;;;3.20;85.70;;;;;;5006252;28;20030;-72
2021/03/20 07:25:53;;;;;;;45.58;34.60;;;3.20;85.90;;;;;;5001523;28;20084;-73
2021/03/20 07:28:25;;;;;;;44.13;33.42;;;3.20;86.10;;;;;;5000927;28;20045;-72
2021/03/20 07:30:59;;;;;;;44.70;32.75;;;3.30;86.20;;;;;;5000696;28;20041;-72
2021/03/20 07:33:27;;;;;;;47.58;35.22;;;3.50;86.00;;;;;;5001549;28;20030;-76
2021/03/20 07:35:56;;;;;;;43.90;33.90;;;3.30;86.10;;;;;;4996239;28;20118;-74
2021/03/20 07:38:28;;;;;;;44.67;32.30;;;3.30;86.50;;;;;;5000995;28;20088;-75
2021/03/20 07:41:09;;;;;;;48.55;34.30;;;3.30;86.70;;;;;;4997118;28;20031;-73
2021/03/20 07:43:34;;;;;;;49.35;35.75;;;3.50;86.50;;;;;;4998229;28;20039;-75
2021/03/20 07:46:16;;;;;;;49.60;34.22;;;3.60;86.60;;;;;;4997996;28;20380;-73
2021/03/20 07:48:43;;;;;;;47.25;35.30;;;3.70;86.30;;;;;;4992788;28;20045;-72
2021/03/20 07:51:14;;;;;;;49.65;33.78;;;3.90;85.80;;;;;;4999095;28;20473;-77
2021/03/20 07:53:51;;;;;;;47.25;33.97;;;4.00;85.60;;;;;;4995581;28;20031;-74
2021/03/20 07:56:36;;;;;;;46.20;32.47;;;4.10;85.10;;;;;;4991752;28;20037;-74
2021/03/20 07:59:12;;;;;;;48.58;33.80;;;4.20;84.70;;;;;;4996538;28;20034;-76
2021/03/20 08:01:39;;;;;;;44.05;31.95;;;4.40;84.20;;;;;;5004149;28;20595;-75
2021/03/20 08:04:08;;;;;;;41.70;32.03;;;4.60;83.50;;;;;;4998642;28;20049;-73
2021/03/20 08:06:49;;;;;;;38.20;31.15;;;4.50;82.80;;;;;;5003511;28;20042;-73
2021/03/20 08:09:21;;;;;;;44.50;32.50;;;4.70;83.00;;;;;;5002272;28;20746;-73
2021/03/20 08:11:59;;;;;;;44.58;32.05;;;4.70;82.50;;;;;;5004207;28;20434;-74
2021/03/20 08:14:49;;;;;;;42.88;32.40;;;4.80;82.40;;;;;;5001953;28;20125;-73
2021/03/20 08:17:18;;;;;;;44.67;32.90;;;4.90;81.80;;;;;;4997395;28;20058;-74
2021/03/20 08:19:44;;;;;;;43.40;32.70;;;5.10;81.80;;;;;;5001702;28;20200;-70
2021/03/20 08:22:35;;;;;;;45.03;33.03;;;5.20;80.90;;;;;;4999318;28;20072;-70
2021/03/20 08:25:22;;;;;;;50.70;34.17;;;5.50;80.50;;;;;;4997620;28;20115;-72
2021/03/20 08:28:03;;;;;;;46.88;37.05;;;5.60;80.30;;;;;;5001579;28;20069;-71
2021/03/20 08:30:47;;;;;;;54.80;38.88;;;5.70;79.50;;;;;;5001908;28;20041;-71
2021/03/20 08:33:25;;;;;;;49.75;37.67;;;6.10;78.60;;;;;;4998194;28;20042;-71
2021/03/20 08:36:16;;;;;;;44.38;33.22;;;6.20;77.30;;;;;;5000731;28;20389;-74
2021/03/20 08:39:01;;;;;;;44.08;34.33;;;6.20;76.50;;;;;;4996351;28;20038;-73
2021/03/20 08:41:48;;;;;;;43.60;32.78;;;6.50;75.70;;;;;;4998568;28;20052;-75
2021/03/20 08:44:43;;;;;;;43.70;32.95;;;6.20;75.80;;;;;;5002364;28;20041;-72
2021/03/20 08:47:27;;;;;;;37.42;29.73;;;6.40;76.50;;;;;;4988502;28;20068;-71
2021/03/20 08:49:55;;;;;;;39.27;31.20;;;6.60;73.60;;;;;;4996465;28;20054;-71
2021/03/20 08:52:48;;;;;;;36.03;29.23;;;6.50;74.40;;;;;;5009087;28;20050;-72
2021/03/20 08:55:24;;;;;;;37.33;29.05;;;6.60;75.50;;;;;;4995841;28;20040;-71
2021/03/20 08:58:01;;;;;;;36.42;28.17;;;6.70;74.60;;;;;;4990705;28;20038;-75
2021/03/20 09:00:34;;;;;;;33.95;26.67;;;7.00;74.20;;;;;;4994140;28;20026;-73
2021/03/20 09:03:07;;;;;;;33.97;26.13;;;7.10;71.80;;;;;;4996654;28;20030;-74
2021/03/20 09:05:38;;;;;;;33.30;25.83;;;7.20;71.30;;;;;;4987361;28;20523;-73
2021/03/20 09:08:35;;;;;;;32.75;25.20;;;7.20;71.80;;;;;;4985793;28;20509;-71
2021/03/20 09:11:11;;;;;;;30.40;25.17;;;7.10;71.40;;;;;;4988626;28;20154;-72
2021/03/20 09:13:43;;;;;;;32.83;25.88;;;7.10;71.20;;;;;;4991967;28;20555;-72
2021/03/20 09:16:21;;;;;;;30.92;26.58;;;7.10;70.20;;;;;;4991499;28;20026;-73
2021/03/20 09:18:47;;;;;;;30.33;24.92;;;6.90;70.60;;;;;;4989119;28;20238;-71
2021/03/20 09:21:13;;;;;;;32.35;26.63;;;6.90;71.00;;;;;;4984363;28;20045;-71
2021/03/20 09:23:43;;;;;;;33.35;26.58;;;7.00;70.90;;;;;;4987928;28;20070;-73
2021/03/20 09:26:37;;;;;;;34.38;26.55;;;7.00;70.60;;;;;;4993498;28;20042;-71
2021/03/20 09:29:15;;;;;;;32.25;27.45;;;7.30;71.40;;;;;;4983177;28;20030;-71
2021/03/20 09:31:57;;;;;;;34.42;27.35;;;7.20;68.90;;;;;;4990542;28;20049;-74
2021/03/20 09:34:33;;;;;;;32.67;26.63;;;7.50;69.50;;;;;;5003065;28;20026;-73
2021/03/20 09:36:59;;;;;;;34.38;26.92;;;7.50;68.00;;;;;;4998562;28;20036;-71
2021/03/20 09:39:37;;;;;;;31.02;26.67;;;7.40;68.70;;;;;;4989361;28;20033;-74
2021/03/20 09:42:04;;;;;;;30.95;26.45;;;7.50;68.50;;;;;;4983868;28;20750;-70
2021/03/20 09:44:34;;;;;;;32.50;27.23;;;7.70;68.00;;;;;;4992630;28;20084;-72
2021/03/20 09:47:00;;;;;;;27.92;24.05;;;8.00;67.70;;;;;;5000048;28;20039;-73
2021/03/20 09:49:25;;;;;;;29.33;23.98;;;8.40;66.10;;;;;;4990984;28;20036;-71
2021/03/20 09:51:52;;;;;;;29.85;24.73;;;8.30;65.10;;;;;;4997809;28;20258;-72
2021/03/20 09:54:27;;;;;;;27.85;23.45;;;8.30;65.30;;;;;;4993766;28;20428;-71
2021/03/20 09:57:05;;;;;;;26.98;23.17;;;8.20;66.50;;;;;;4993688;28;20531;-72
2021/03/20 09:59:32;;;;;;;29.10;24.40;;;8.10;65.40;;;;;;4994540;28;20048;-72
2021/03/20 10:01:59;;;;;;;25.45;22.23;;;8.10;66.50;;;;;;4994729;28;20030;-72
2021/03/20 10:04:25;;;;;;;26.35;21.90;;;7.90;65.80;;;;;;4993033;28;20033;-71
2021/03/20 10:07:15;;;;;;;23.65;19.85;;;8.10;65.90;;;;;;4993395;28;20042;-72
2021/03/20 10:09:55;;;;;;;21.88;17.55;;;8.30;65.60;;;;;;4995408;28;20080;-73
2021/03/20 10:12:25;;;;;;;23.73;19.17;;;8.10;64.20;;;;;;4994102;28;20565;-73
2021/03/20 10:15:01;;;;;;;21.25;18.05;;;8.10;64.80;;;;;;4994448;28;20045;-74
2021/03/20 10:17:30;;;;;;;21.58;18.65;;;8.00;65.30;;;;;;4996126;28;20050;-71
2021/03/20 10:20:07;;;;;;;20.25;16.38;;;7.90;65.40;;;;;;4992294;28;20042;-73
2021/03/20 10:22:36;;;;;;;19.00;16.38;;;8.00;63.40;;;;;;4992210;28;20049;-73
2021/03/20 10:25:05;;;;;;;17.23;14.30;;;8.00;62.60;;;;;;4990085;28;20029;-72
2021/03/20 10:27:39;;;;;;;18.42;14.60;;;8.20;60.60;;;;;;4993366;28;20056;-71
2021/03/20 10:30:19;;;;;;;18.10;15.15;;;8.60;60.00;;;;;;4992997;28;20038;-71
2021/03/20 10:32:59;;;;;;;17.75;14.90;;;8.70;61.10;;;;;;4993646;28;20057;-72
2021/03/20 10:35:27;;;;;;;18.80;15.15;;;9.00;59.50;;;;;;4990679;28;20033;-72
2021/03/20 10:37:54;;;;;;;14.80;12.10;;;9.00;59.60;;;;;;4995017;28;20046;-73
2021/03/20 10:40:28;;;;;;;15.07;12.63;;;9.10;56.50;;;;;;4991073;28;20041;-70
2021/03/20 10:43:00;;;;;;;16.40;13.52;;;9.30;57.60;;;;;;4995908;28;20389;-71
2021/03/20 10:45:33;;;;;;;15.98;14.27;;;9.30;54.80;;;;;;4994299;28;20030;-71
2021/03/20 10:48:07;;;;;;;11.40;9.75;;;9.40;55.70;;;;;;4994567;28;20112;-70
2021/03/20 10:50:36;;;;;;;14.88;11.82;;;9.50;53.60;;;;;;4994585;28;20026;-70
2021/03/20 10:53:22;;;;;;;15.52;13.20;;;9.60;52.80;;;;;;4994072;28;20077;-71
2021/03/20 10:55:59;;;;;;;19.77;16.27;;;9.40;53.90;;;;;;4998578;28;20057;-69
2021/03/20 10:58:39;;;;;;;19.48;14.70;;;9.10;56.70;;;;;;4991249;28;20566;-71
2021/03/20 11:01:05;;;;;;;17.52;15.35;;;9.40;56.60;;;;;;4993278;28;20670;-70
2021/03/20 11:03:44;;;;;;;18.10;14.95;;;9.30;56.80;;;;;;4998263;28;20038;-70
2021/03/20 11:06:13;;;;;;;17.65;15.20;;;9.70;55.80;;;;;;4990854;28;20018;-71
2021/03/20 11:08:40;;;;;;;18.27;15.38;;;9.80;56.50;;;;;;4993319;28;20615;-69
2021/03/20 11:11:08;;;;;;;17.35;13.32;;;9.90;55.40;;;;;;4990576;28;20022;-70
2021/03/20 11:13:43;;;;;;;13.60;11.60;;;9.70;54.90;;;;;;4992862;28;20038;-72
2021/03/20 11:16:14;;;;;;;15.40;11.25;;;9.30;53.90;;;;;;4992852;28;20018;-74
2021/03/20 11:18:46;;;;;;;13.70;11.50;;;9.30;52.10;;;;;;4997825;28;20045;-69
2021/03/20 11:21:27;;;;;;;14.57;10.95;;;9.30;53.50;;;;;;4991184;28;20409;-69
2021/03/20 11:24:06;;;;;;;13.50;11.10;;;9.20;52.80;;;;;;4993687;28;20084;-71
2021/03/20 11:26:37;;;;;;;14.68;11.48;;;9.30;51.80;;;;;;5010702;28;20058;-71
2021/03/20 11:29:06;;;;;;;12.52;11.07;;;9.20;52.10;;;;;;4993720;28;20058;-69
2021/03/20 11:31:44;;;;;;;16.92;13.73;;;9.60;52.50;;;;;;4993432;28;20092;-69
2021/03/20 11:34:15;;;;;;;16.30;13.52;;;9.40;53.20;;;;;;4991747;28;20049;-73
2021/03/20 11:36:41;;;;;;;17.75;15.27;;;9.40;54.20;;;;;;4991961;28;20059;-70
2021/03/20 11:39:09;;;;;;;16.85;14.13;;;9.80;54.80;;;;;;4993503;28;20038;-70
2021/03/20 11:41:36;;;;;;;15.43;13.65;;;9.80;53.70;;;;;;4993777;28;20619;-71
2021/03/20 11:44:12;;;;;;;15.00;13.50;;;10.10;53.90;;;;;;4992425;28;20038;-69
2021/03/20 11:46:52;;;;;;;15.85;13.85;;;10.20;52.80;;;;;;4995757;28;20041;-71
2021/03/20 11:49:36;;;;;;;15.80;13.38;;;10.20;51.20;;;;;;5001182;28;20032;-71
2021/03/20 11:52:03;;;;;;;16.10;14.48;;;10.10;51.70;;;;;;4995145;28;20040;-70
2021/03/20 11:54:39;;;;;;;15.70;14.00;;;10.10;52.90;;;;;;4994255;28;20499;-73
2021/03/20 11:57:20;;;;;;;15.63;13.75;;;10.20;52.10;;;;;;4994532;28;20091;-70
2021/03/20 11:59:46;;;;;;;17.67;13.85;;;10.00;52.50;;;;;;4996399;28;20553;-70
2021/03/20 12:02:37;;;;;;;16.58;14.35;;;9.70;53.90;;;;;;4991486;28;20038;-70
2021/03/20 12:05:15;;;;;;;17.25;14.50;;;10.10;52.60;;;;;;5001557;28;20030;-69
2021/03/20 12:07:41;;;;;;;16.42;14.60;;;10.20;53.30;;;;;;4992776;28;20065;-69
2021/03/20 12:10:19;;;;;;;17.02;15.25;;;10.20;54.00;;;;;;5006654;28;20036;-69
2021/03/20 12:12:54;;;;;;;17.05;15.23;;;10.50;53.30;;;;;;4999343;28;20057;-69
2021/03/20 12:15:23;;;;;;;16.10;14.30;;;10.50;53.10;;;;;;4992080;28;20152;-69
2021/03/20 12:17:50;;;;;;;16.83;15.13;;;10.30;54.10;;;;;;5001858;28;20121;-70
2021/03/20 12:20:30;;;;;;;18.23;15.27;;;10.30;53.70;;;;;;4999361;28;20375;-69
2021/03/20 12:22:56;;;;;;;16.95;15.15;;;10.20;53.70;;;;;;4992288;28;20444;-69
2021/03/20 12:25:39;;;;;;;16.60;14.15;;;10.40;54.30;;;;;;4992083;28;20073;-70
2021/03/20 12:28:34;;;;;;;16.50;14.80;;;10.60;53.70;;;;;;4995602;28;20065;-69
2021/03/20 12:31:13;;;;;;;15.35;13.60;;;10.80;51.40;;;;;;4998735;28;20038;-69
2021/03/20 12:33:43;;;;;;;15.18;13.57;;;10.60;52.20;;;;;;4994925;28;20045;-71
2021/03/20 12:36:24;;;;;;;14.85;13.27;;;10.70;52.20;;;;;;4994463;28;20088;-68
2021/03/20 12:38:49;;;;;;;13.98;12.52;;;10.80;51.80;;;;;;4996004;28;20076;-70
2021/03/20 12:41:20;;;;;;;12.80;11.23;;;11.00;51.00;;;;;;5004256;28;20521;-68
2021/03/20 12:44:12;;;;;;;13.63;12.20;;;10.90;48.00;;;;;;4995115;28;20378;-68
2021/03/20 12:46:41;;;;;;;14.63;12.15;;;10.40;48.50;;;;;;4996560;28;20073;-72
2021/03/20 12:49:07;;;;;;;14.85;12.90;;;10.10;49.40;;;;;;5005194;28;20048;-69
2021/03/20 12:51:33;;;;;;;16.90;15.10;;;10.10;49.90;;;;;;5016540;28;20450;-70
2021/03/20 12:53:59;;;;;;;15.77;14.10;;;10.30;51.90;;;;;;5005451;28;20088;-69
2021/03/20 12:56:25;;;;;;;15.88;14.18;;;10.50;51.40;;;;;;4997224;28;20030;-69
2021/03/20 12:58:50;;;;;;;15.85;14.15;;;10.80;51.40;;;;;;5003133;28;20073;-70
2021/03/20 13:01:16;;;;;;;15.32;13.77;;;10.90;51.40;;;;;;5020852;28;20100;-69
2021/03/20 13:03:42;;;;;;;15.80;14.10;;;11.10;50.30;;;;;;5010700;28;20041;-69
2021/03/20 13:06:08;;;;;;;14.63;13.05;;;11.10;49.40;;;;;;5003629;28;20026;-70
2021/03/20 13:08:36;;;;;;;15.15;13.43;;;10.80;48.70;;;;;;5004005;28;20504;-69
2021/03/20 13:11:02;;;;;;;14.90;12.75;;;10.70;49.80;;;;;;5006506;28;20025;-71
2021/03/20 13:13:28;;;;;;;14.55;12.52;;;10.80;48.50;;;;;;5006914;28;20480;-69
2021/03/20 13:15:54;;;;;;;15.23;12.68;;;10.80;50.20;;;;;;5009766;28;20029;-69